createdAt,value
2022-09-20T00:01:13.713Z,19.30
2022-09-20T00:03:42.526Z,22.27
2022-09-20T00:06:13.087Z,21.10
2022-09-20T00:08:40.336Z,20.83
2022-09-20T00:11:10.966Z,17.03
2022-09-20T00:13:38.189Z,18.30
2022-09-20T00:16:10.679Z,21.40
2022-09-20T00:18:40.098Z,20.03
2022-09-20T00:21:07.054Z,21.40
2022-09-20T00:23:33.831Z,21.30
2022-09-20T00:26:01.539Z,22.53
2022-09-20T00:28:28.858Z,19.10
2022-09-20T00:30:58.214Z,17.33
2022-09-20T00:33:25.218Z,21.03
2022-09-20T00:35:51.931Z,20.47
2022-09-20T00:38:18.606Z,18.60
2022-09-20T00:40:45.528Z,19.17
2022-09-20T00:43:18.313Z,19.67
2022-09-20T00:45:46.283Z,17.53
2022-09-20T00:48:22.484Z,22.37
2022-09-20T00:50:54.689Z,19.93
2022-09-20T00:53:32.093Z,21.60
2022-09-20T00:55:58.776Z,20.90
2022-09-20T00:58:25.966Z,20.10
2022-09-20T01:00:52.704Z,19.20
2022-09-20T01:03:23.078Z,20.67
2022-09-20T01:05:53.238Z,19.10
2022-09-20T01:08:20.481Z,21.57
2022-09-20T01:10:47.359Z,22.17
2022-09-20T01:13:14.503Z,20.73
2022-09-20T01:15:43.528Z,22.63
2022-09-20T01:18:10.378Z,20.90
2022-09-20T01:20:40.923Z,20.27
2022-09-20T01:24:05.247Z,20.23
2022-09-20T01:26:38.248Z,22.00
2022-09-20T01:29:20.023Z,21.50
2022-09-20T01:31:52.634Z,20.50
2022-09-20T01:34:28.189Z,19.57
2022-09-20T01:36:56.114Z,19.00
2022-09-20T01:39:34.725Z,22.43
2022-09-20T01:42:19.513Z,25.77
2022-09-20T01:44:58.758Z,21.80
2022-09-20T01:47:31.745Z,19.77
2022-09-20T01:50:32.661Z,20.37
2022-09-20T01:53:20.941Z,23.03
2022-09-20T01:56:09.275Z,22.37
2022-09-20T01:59:19.404Z,24.13
2022-09-20T02:01:47.842Z,22.57
2022-09-20T02:04:49.800Z,22.13
2022-09-20T02:07:39.054Z,22.27
2022-09-20T02:10:14.761Z,22.77
2022-09-20T02:12:50.093Z,22.80
2022-09-20T02:15:48.623Z,25.13
2022-09-20T02:18:28.821Z,20.47
2022-09-20T02:21:05.593Z,19.37
2022-09-20T02:23:47.221Z,20.53
2022-09-20T02:26:16.981Z,23.80
2022-09-20T02:28:54.620Z,20.80
2022-09-20T02:31:43.324Z,21.27
2022-09-20T02:34:10.070Z,24.97
2022-09-20T02:36:54.678Z,20.87
2022-09-20T02:39:23.289Z,20.60
2022-09-20T02:42:23.459Z,19.07
2022-09-20T02:44:55.595Z,21.27
2022-09-20T02:47:27.809Z,21.47
2022-09-20T02:50:15.733Z,22.07
2022-09-20T02:52:48.461Z,23.77
2022-09-20T02:55:21.195Z,25.60
2022-09-20T02:58:05.979Z,21.03
2022-09-20T03:01:11.659Z,23.97
2022-09-20T03:03:44.480Z,27.67
2022-09-20T03:06:22.931Z,22.70
2022-09-20T03:09:04.318Z,25.40
2022-09-20T03:12:16.313Z,22.40
2022-09-20T03:14:54.538Z,24.90
2022-09-20T03:17:31.537Z,21.10
2022-09-20T03:20:15.683Z,22.50
2022-09-20T03:23:10.659Z,22.93
2022-09-20T03:25:58.703Z,22.47
2022-09-20T03:28:34.961Z,18.73
2022-09-20T03:31:01.693Z,21.77
2022-09-20T03:33:59.086Z,22.07
2022-09-20T03:36:37.609Z,17.77
2022-09-20T03:39:31.284Z,22.80
2022-09-20T03:42:03.974Z,18.73
2022-09-20T03:45:04.367Z,17.53
2022-09-20T03:48:01.979Z,21.00
2022-09-20T03:50:41.204Z,21.70
2022-09-20T03:53:42.109Z,19.30
2022-09-20T03:56:27.760Z,16.13
2022-09-20T03:59:10.760Z,18.63
2022-09-20T04:02:03.851Z,17.03
2022-09-20T04:04:36.506Z,18.07
2022-09-20T04:07:36.853Z,16.53
2022-09-20T04:10:03.593Z,16.67
2022-09-20T04:13:02.551Z,16.53
2022-09-20T04:15:44.446Z,14.30
2022-09-20T04:18:43.690Z,15.50
2022-09-20T04:21:41.283Z,20.43
2022-09-20T04:24:24.037Z,16.37
2022-09-20T04:27:02.337Z,13.43
2022-09-20T04:30:05.508Z,14.80
2022-09-20T04:32:47.461Z,14.80
2022-09-20T04:35:51.614Z,12.93
2022-09-20T04:38:19.708Z,16.67
2022-09-20T04:41:08.853Z,14.60
2022-09-20T04:44:03.199Z,18.80
2022-09-20T04:46:55.909Z,16.90
2022-09-20T04:49:59.227Z,18.87
2022-09-20T04:52:28.952Z,14.33
2022-09-20T04:55:21.310Z,14.07
2022-09-20T04:58:13.797Z,18.00
2022-09-20T05:00:58.355Z,16.70
2022-09-20T05:03:37.540Z,15.33
2022-09-20T05:06:26.774Z,16.50
2022-09-20T05:08:58.859Z,19.57
2022-09-20T05:11:30.621Z,17.43
2022-09-20T05:14:28.733Z,16.40
2022-09-20T05:17:14.814Z,15.90
2022-09-20T05:20:05.527Z,13.67
2022-09-20T05:22:59.533Z,16.00
2022-09-20T05:25:41.264Z,16.47
2022-09-20T05:28:28.715Z,17.10
2022-09-20T05:31:15.701Z,18.53
2022-09-20T05:34:15.689Z,16.47
2022-09-20T05:37:13.042Z,14.77
2022-09-20T05:39:52.246Z,15.03
2022-09-20T05:42:24.071Z,16.93
2022-09-20T05:44:56.721Z,13.53
2022-09-20T05:48:01.855Z,14.07
2022-09-20T05:50:55.724Z,12.93
2022-09-20T05:54:07.988Z,16.33
2022-09-20T05:56:34.667Z,16.57
2022-09-20T05:59:11.898Z,14.33
2022-09-20T06:01:51.038Z,15.53
2022-09-20T06:04:29.078Z,16.57
2022-09-20T06:07:06.310Z,15.10
2022-09-20T06:09:42.250Z,19.77
2022-09-20T06:12:45.652Z,17.20
2022-09-20T06:15:26.679Z,16.57
2022-09-20T06:18:26.209Z,16.33
2022-09-20T06:21:20.641Z,20.13
2022-09-20T06:23:47.385Z,20.90
2022-09-20T06:26:19.833Z,21.93
2022-09-20T06:28:58.253Z,20.50
2022-09-20T06:31:27.525Z,17.43
2022-09-20T06:33:58.434Z,14.33
2022-09-20T06:36:47.461Z,19.87
2022-09-20T06:39:54.657Z,16.63
2022-09-20T06:42:25.309Z,21.80
2022-09-20T06:44:53.819Z,18.67
2022-09-20T06:47:23.350Z,21.10
2022-09-20T06:49:50.482Z,21.97
2022-09-20T06:52:18.146Z,19.00
2022-09-20T06:54:47.411Z,23.83
2022-09-20T06:57:44.116Z,20.73
2022-09-20T07:00:15.784Z,19.03
2022-09-20T07:02:45.130Z,20.20
2022-09-20T07:05:17.072Z,20.10
2022-09-20T07:07:44.328Z,19.50
2022-09-20T07:10:11.951Z,18.07
2022-09-20T07:12:39.225Z,17.73
2022-09-20T07:15:06.506Z,17.97
2022-09-20T07:17:33.889Z,18.73
2022-09-20T07:20:00.939Z,19.33
2022-09-20T07:22:27.932Z,16.90
2022-09-20T07:24:55.029Z,20.27
2022-09-20T07:27:26.464Z,16.93
2022-09-20T07:29:56.459Z,18.30
2022-09-20T07:32:23.160Z,19.57
2022-09-20T07:34:52.006Z,14.30
2022-09-20T07:37:19.420Z,24.23
2022-09-20T07:39:46.388Z,18.77
2022-09-20T07:42:13.445Z,18.87
2022-09-20T07:44:42.382Z,18.13
2022-09-20T07:47:14.062Z,20.90
2022-09-20T07:49:43.059Z,19.90
2022-09-20T07:52:11.234Z,16.80
2022-09-20T07:54:37.923Z,16.00
2022-09-20T07:57:07.159Z,20.53
2022-09-20T07:59:36.290Z,29.53
2022-09-20T08:02:03.111Z,17.47
2022-09-20T08:04:29.869Z,18.23
2022-09-20T08:06:58.984Z,14.57
2022-09-20T08:09:25.743Z,15.50
2022-09-20T08:11:53.198Z,16.63
2022-09-20T08:14:20.910Z,20.30
2022-09-20T08:16:48.497Z,15.23
2022-09-20T08:19:17.291Z,17.93
2022-09-20T08:21:46.445Z,15.33
2022-09-20T08:24:17.900Z,18.43
2022-09-20T08:26:44.759Z,14.67
2022-09-20T08:29:16.341Z,13.47
2022-09-20T08:31:43.421Z,15.93
2022-09-20T08:34:15.115Z,16.63
2022-09-20T08:36:44.214Z,14.07
2022-09-20T08:42:08.049Z,13.87
2022-09-20T08:44:46.982Z,14.57
2022-09-20T08:47:21.923Z,15.40
2022-09-20T08:49:50.117Z,18.37
2022-09-20T08:52:21.506Z,14.33
2022-09-20T08:54:48.259Z,16.80
2022-09-20T08:57:19.484Z,16.17
2022-09-20T08:59:50.384Z,15.63
2022-09-20T09:02:21.060Z,20.93
2022-09-20T09:04:48.958Z,16.47
2022-09-20T09:07:17.535Z,16.43
2022-09-20T09:09:47.379Z,18.63
2022-09-20T09:12:21.950Z,17.13
2022-09-20T09:14:48.693Z,18.87
2022-09-20T09:17:20.403Z,19.30
2022-09-20T09:20:08.588Z,18.90
2022-09-20T09:22:39.598Z,21.77
2022-09-20T09:25:15.367Z,20.27
2022-09-20T09:27:53.136Z,19.03
2022-09-20T09:30:30.242Z,18.53
2022-09-20T09:33:30.952Z,16.77
2022-09-20T09:36:07.475Z,21.73
2022-09-20T09:38:38.410Z,20.47
2022-09-20T09:41:08.472Z,17.83
2022-09-20T09:43:40.520Z,15.77
2022-09-20T09:46:18.586Z,16.90
2022-09-20T09:48:50.063Z,16.47
2022-09-20T09:51:20.720Z,16.67
2022-09-20T09:53:49.095Z,16.30
2022-09-20T09:56:30.932Z,15.07
2022-09-20T09:59:20.832Z,17.33
2022-09-20T10:02:03.727Z,15.03
2022-09-20T10:04:37.691Z,13.13
2022-09-20T10:07:12.008Z,13.17
2022-09-20T10:09:57.403Z,15.83
2022-09-20T10:12:52.000Z,12.67
2022-09-20T10:15:52.010Z,14.70
2022-09-20T10:18:31.450Z,14.47
2022-09-20T10:21:44.859Z,11.20
2022-09-20T10:24:20.536Z,15.30
2022-09-20T10:27:06.555Z,13.40
2022-09-20T10:29:46.544Z,13.27
2022-09-20T10:32:32.320Z,12.67
2022-09-20T10:35:11.608Z,16.13
2022-09-20T10:37:38.475Z,15.50
2022-09-20T10:41:05.820Z,13.53
2022-09-20T10:43:50.644Z,12.57
2022-09-20T10:46:46.609Z,11.50
2022-09-20T10:49:48.433Z,12.60
2022-09-20T10:52:31.730Z,14.03
2022-09-20T10:55:03.913Z,14.57
2022-09-20T10:57:49.850Z,13.63
2022-09-20T11:00:20.195Z,13.50
2022-09-20T11:03:42.831Z,11.60
2022-09-20T11:06:32.790Z,14.30
2022-09-20T11:09:02.235Z,10.80
2022-09-20T11:11:38.159Z,10.97
2022-09-20T11:14:11.134Z,9.10
2022-09-20T11:16:43.324Z,8.43
2022-09-20T11:19:15.359Z,8.83
2022-09-20T11:21:53.933Z,10.57
2022-09-20T11:24:25.805Z,9.93
2022-09-20T11:27:18.488Z,10.73
2022-09-20T11:29:45.209Z,8.73
2022-09-20T11:32:15.852Z,7.50
2022-09-20T11:34:50.158Z,8.23
2022-09-20T11:37:19.527Z,10.17
2022-09-20T11:39:56.042Z,9.03
2022-09-20T11:42:25.669Z,9.10
2022-09-20T11:44:52.459Z,6.30
2022-09-20T11:47:49.963Z,6.80
2022-09-20T11:50:48.551Z,5.70
2022-09-20T11:53:36.759Z,7.10
2022-09-20T11:56:05.182Z,6.93
2022-09-20T11:58:33.123Z,8.23
2022-09-20T12:00:59.881Z,8.77
2022-09-20T12:03:45.062Z,9.23
2022-09-20T12:06:25.083Z,8.40
2022-09-20T12:08:52.045Z,4.70
2022-09-20T12:11:36.310Z,7.40
2022-09-20T12:14:07.281Z,4.43
2022-09-20T12:16:37.117Z,6.10
2022-09-20T12:19:07.400Z,6.07
2022-09-20T12:21:59.079Z,5.77
2022-09-20T12:24:32.801Z,6.13
2022-09-20T12:27:00.825Z,4.53
2022-09-20T12:29:29.477Z,6.70
2022-09-20T12:31:58.313Z,6.77
2022-09-20T12:34:25.382Z,4.37
2022-09-20T12:36:54.990Z,3.50
2022-09-20T12:39:29.941Z,6.83
2022-09-20T12:42:04.092Z,9.13
2022-09-20T12:44:44.161Z,3.97
2022-09-20T12:47:13.496Z,6.90
2022-09-20T12:50:01.726Z,4.33
2022-09-20T12:52:53.218Z,4.80
2022-09-20T12:55:40.620Z,4.37
2022-09-20T12:58:15.719Z,4.37
2022-09-20T13:00:59.414Z,5.70
2022-09-20T13:03:34.771Z,5.67
2022-09-20T13:06:07.419Z,4.83
2022-09-20T13:08:52.324Z,3.40
2022-09-20T13:11:34.895Z,2.67
2022-09-20T13:14:06.633Z,4.70
2022-09-20T13:16:38.515Z,5.43
2022-09-20T13:19:12.805Z,6.80
2022-09-20T13:21:42.473Z,4.00
2022-09-20T13:24:12.462Z,3.53
2022-09-20T13:26:47.350Z,5.60
2022-09-20T13:29:38.010Z,4.23
2022-09-20T13:32:24.954Z,4.93
2022-09-20T13:35:08.303Z,3.30
2022-09-20T13:37:35.130Z,2.97
2022-09-20T13:40:01.962Z,5.60
2022-09-20T13:42:30.019Z,3.60
2022-09-20T13:44:58.652Z,5.77
2022-09-20T13:47:31.976Z,4.03
2022-09-20T13:50:03.014Z,4.07
2022-09-20T13:52:31.157Z,8.00
2022-09-20T13:54:57.879Z,5.53
2022-09-20T13:57:28.690Z,3.50
2022-09-20T13:59:55.659Z,3.43
2022-09-20T14:02:31.630Z,5.50
2022-09-20T14:05:04.704Z,5.67
2022-09-20T14:07:34.083Z,5.10
2022-09-20T14:10:01.023Z,3.87
2022-09-20T14:12:27.823Z,3.90
2022-09-20T14:14:56.649Z,6.77
2022-09-20T14:17:24.624Z,3.93
2022-09-20T14:19:53.718Z,3.47
2022-09-20T14:22:30.189Z,5.17
2022-09-20T14:25:22.720Z,4.10
2022-09-20T14:27:49.475Z,3.10
2022-09-20T14:30:32.870Z,3.20
2022-09-20T14:32:59.768Z,5.70
2022-09-20T14:35:27.314Z,4.67
2022-09-20T14:38:01.653Z,4.37
2022-09-20T14:40:47.489Z,4.70
2022-09-20T14:43:33.843Z,7.27
2022-09-20T14:46:03.692Z,3.50
2022-09-20T14:48:36.800Z,4.10
2022-09-20T14:51:14.212Z,3.60
2022-09-20T14:53:40.903Z,3.47
2022-09-20T14:56:12.887Z,9.03
2022-09-20T14:59:06.802Z,5.27
2022-09-20T15:01:34.601Z,4.20
2022-09-20T15:04:09.635Z,6.50
2022-09-20T15:06:39.477Z,5.43
2022-09-20T15:09:06.329Z,9.33
2022-09-20T15:11:33.138Z,7.40
2022-09-20T15:13:59.871Z,11.47
2022-09-20T15:16:26.579Z,7.93
2022-09-20T15:18:54.062Z,5.10
2022-09-20T15:21:21.513Z,3.40
2022-09-20T15:23:48.661Z,4.57
2022-09-20T15:26:15.471Z,5.13
2022-09-20T15:28:42.324Z,4.27
2022-09-20T15:31:13.703Z,3.77
2022-09-20T15:33:40.648Z,2.93
2022-09-20T15:36:07.799Z,4.83
2022-09-20T15:38:34.696Z,3.10
2022-09-20T15:41:04.196Z,2.37
2022-09-20T15:43:33.384Z,3.20
2022-09-20T15:46:01.962Z,2.57
2022-09-20T15:48:30.015Z,2.00
2022-09-20T15:51:02.375Z,4.97
2022-09-20T15:53:33.535Z,4.27
2022-09-20T15:56:02.065Z,2.67
2022-09-20T15:58:36.200Z,7.30
2022-09-20T16:01:08.201Z,2.83
2022-09-20T16:03:35.524Z,2.33
2022-09-20T16:06:08.771Z,2.73
2022-09-20T16:08:37.101Z,3.00
2022-09-20T16:11:04.296Z,5.17
2022-09-20T16:13:31.202Z,3.67
2022-09-20T16:15:58.969Z,2.57
2022-09-20T16:18:44.782Z,2.07
2022-09-20T16:21:16.267Z,3.43
2022-09-20T16:23:47.144Z,6.50
2022-09-20T16:26:13.901Z,2.50
2022-09-20T16:28:45.142Z,2.97
2022-09-20T16:31:33.040Z,4.23
2022-09-20T16:34:00.358Z,4.17
2022-09-20T16:36:27.731Z,1.40
2022-09-20T16:38:55.797Z,3.57
2022-09-20T16:41:26.536Z,2.10
2022-09-20T16:43:55.611Z,1.97
2022-09-20T16:46:25.551Z,5.00
2022-09-20T16:48:53.748Z,5.47
2022-09-20T16:51:25.942Z,1.80
2022-09-20T16:53:55.781Z,3.03
2022-09-20T16:56:26.042Z,2.47
2022-09-20T16:58:53.462Z,6.03
2022-09-20T17:01:25.590Z,2.60
2022-09-20T17:03:55.038Z,1.50
2022-09-20T17:06:22.225Z,3.37
2022-09-20T17:08:58.845Z,1.87
2022-09-20T17:11:29.594Z,3.10
2022-09-20T17:13:59.450Z,4.20
2022-09-20T17:16:30.496Z,3.43
2022-09-20T17:19:01.218Z,4.03
2022-09-20T17:21:28.718Z,4.93
2022-09-20T17:23:57.385Z,3.93
2022-09-20T17:26:34.969Z,4.70
2022-09-20T17:29:02.476Z,3.40
2022-09-20T17:31:33.957Z,3.50
2022-09-20T17:34:02.289Z,5.10
2022-09-20T17:36:34.620Z,4.70
2022-09-20T17:39:04.518Z,3.70
2022-09-20T17:41:37.429Z,4.80
2022-09-20T17:44:08.265Z,4.67
2022-09-20T17:46:37.291Z,5.43
2022-09-20T17:49:08.980Z,6.17
2022-09-20T17:51:43.195Z,5.83
2022-09-20T17:54:13.888Z,5.27
2022-09-20T17:56:46.562Z,8.33
2022-09-20T17:59:16.446Z,6.20
2022-09-20T18:01:43.950Z,5.03
2022-09-20T18:04:13.194Z,4.20
2022-09-20T18:06:49.614Z,9.53
2022-09-20T18:09:17.947Z,5.87
2022-09-20T18:11:50.622Z,5.63
2022-09-20T18:14:18.732Z,4.87
2022-09-20T18:16:47.821Z,5.90
2022-09-20T18:19:16.134Z,7.77
2022-09-20T18:21:43.055Z,7.90
2022-09-20T18:24:10.635Z,9.27
2022-09-20T18:26:39.803Z,8.00
2022-09-20T18:29:12.928Z,10.70
2022-09-20T18:31:43.294Z,9.87
2022-09-20T18:34:12.224Z,11.57
2022-09-20T18:36:42.321Z,11.23
2022-09-20T18:39:11.805Z,11.33
2022-09-20T18:41:41.192Z,8.77
2022-09-20T18:44:08.184Z,10.60
2022-09-20T18:46:38.164Z,10.70
2022-09-20T18:49:09.933Z,9.83
2022-09-20T18:51:39.725Z,13.07
2022-09-20T18:54:09.912Z,12.00
2022-09-20T18:56:42.479Z,13.77
2022-09-20T18:59:25.263Z,11.60
2022-09-20T19:01:55.302Z,15.57
2022-09-20T19:04:46.366Z,12.50
2022-09-20T19:07:28.520Z,12.73
2022-09-20T19:10:09.287Z,14.13
2022-09-20T19:12:48.365Z,16.83
2022-09-20T19:15:19.717Z,14.30
2022-09-20T19:18:07.420Z,12.10
2022-09-20T19:20:37.006Z,13.93
2022-09-20T19:23:06.772Z,12.73
2022-09-20T19:25:44.274Z,15.67
2022-09-20T19:28:12.100Z,18.07
2022-09-20T19:30:40.548Z,27.43
2022-09-20T19:33:17.096Z,16.10
2022-09-20T19:35:51.056Z,15.37
2022-09-20T19:38:35.304Z,11.60
2022-09-20T19:41:08.808Z,12.27
2022-09-20T19:43:45.312Z,12.67
2022-09-20T19:46:27.214Z,13.83
2022-09-20T19:49:02.495Z,10.33
2022-09-20T19:51:29.251Z,10.30
2022-09-20T19:54:00.099Z,11.77
2022-09-20T19:56:27.893Z,13.43
2022-09-20T19:58:56.105Z,11.93
2022-09-20T20:01:26.096Z,9.97
2022-09-20T20:03:53.593Z,12.83
2022-09-20T20:06:37.354Z,11.13
2022-09-20T20:09:08.600Z,8.53
2022-09-20T20:11:38.374Z,9.53
2022-09-20T20:14:18.312Z,8.63
2022-09-20T20:16:58.420Z,8.70
2022-09-20T20:19:46.698Z,12.20
2022-09-20T20:22:34.647Z,10.60
2022-09-20T20:25:01.557Z,7.93
2022-09-20T20:27:28.525Z,8.60
2022-09-20T20:29:57.796Z,8.17
2022-09-20T20:32:24.605Z,9.53
2022-09-20T20:34:51.334Z,11.13
2022-09-20T20:37:18.188Z,9.73
2022-09-20T20:39:44.969Z,7.30
2022-09-20T20:42:12.874Z,10.40
2022-09-20T20:44:40.078Z,8.23
2022-09-20T20:47:11.774Z,6.67
2022-09-20T20:49:38.844Z,8.57
2022-09-20T20:52:08.996Z,7.07
2022-09-20T20:54:37.993Z,7.60
2022-09-20T20:57:04.830Z,9.73
2022-09-20T20:59:31.609Z,10.10
2022-09-20T21:02:04.530Z,8.20
2022-09-20T21:04:40.733Z,8.30
2022-09-20T21:07:10.843Z,9.70
2022-09-20T21:09:37.581Z,8.13
2022-09-20T21:12:05.124Z,10.27
2022-09-20T21:14:35.178Z,11.90
2022-09-20T21:17:02.534Z,11.83
2022-09-20T21:19:31.446Z,8.33
2022-09-20T21:22:00.290Z,6.00
2022-09-20T21:24:27.192Z,8.57
2022-09-20T21:26:53.908Z,5.63
2022-09-20T21:29:20.855Z,8.67
2022-09-20T21:31:50.077Z,10.03
2022-09-20T21:34:16.973Z,7.23
2022-09-20T21:36:44.803Z,6.90
2022-09-20T21:39:11.850Z,6.03
2022-09-20T21:41:41.129Z,8.23
2022-09-20T21:44:09.963Z,7.00
2022-09-20T21:46:40.719Z,6.93
2022-09-20T21:49:08.704Z,7.63
2022-09-20T21:51:35.783Z,7.30
2022-09-20T21:54:02.878Z,6.97
2022-09-20T21:56:31.449Z,9.00
2022-09-20T21:59:04.276Z,9.00
2022-09-20T22:01:34.954Z,8.43
2022-09-20T22:04:06.539Z,8.80
2022-09-20T22:06:35.678Z,8.50
2022-09-20T22:09:15.672Z,8.10
2022-09-20T22:11:51.596Z,6.93
2022-09-20T22:14:19.680Z,7.50
2022-09-20T22:16:49.232Z,7.63
2022-09-20T22:19:17.192Z,9.57
2022-09-20T22:21:50.161Z,6.23
2022-09-20T22:24:17.007Z,6.97
2022-09-20T22:26:47.474Z,8.20
2022-09-20T22:29:14.663Z,8.70
2022-09-20T22:31:45.590Z,9.33
2022-09-20T22:34:30.542Z,8.97
2022-09-20T22:36:57.227Z,7.27
2022-09-20T22:39:24.130Z,8.57
2022-09-20T22:41:51.007Z,10.90
2022-09-20T22:44:22.555Z,9.77
2022-09-20T22:46:49.403Z,8.80
2022-09-20T22:49:16.117Z,11.90
2022-09-20T22:51:43.000Z,9.87
2022-09-20T22:54:10.930Z,9.47
2022-09-20T22:56:37.875Z,8.27
2022-09-20T22:59:08.864Z,7.83
2022-09-20T23:01:41.244Z,7.47
2022-09-20T23:04:11.985Z,8.67
2022-09-20T23:06:55.138Z,7.57
2022-09-20T23:09:23.645Z,7.93
2022-09-20T23:11:52.967Z,8.43
2022-09-20T23:14:23.187Z,7.77
2022-09-20T23:16:50.105Z,8.67
2022-09-20T23:19:17.306Z,7.70
2022-09-20T23:21:44.214Z,9.13
2022-09-20T23:24:16.969Z,8.60
2022-09-20T23:26:46.261Z,7.00
2022-09-20T23:29:15.015Z,9.33
2022-09-20T23:31:45.880Z,10.30
2022-09-20T23:34:16.065Z,9.13
2022-09-20T23:36:42.982Z,7.87
2022-09-20T23:39:12.314Z,9.70
2022-09-20T23:41:41.509Z,7.17
2022-09-20T23:44:09.895Z,8.93
2022-09-20T23:46:36.996Z,8.33
2022-09-20T23:49:03.884Z,7.30
2022-09-20T23:51:30.862Z,7.90
2022-09-20T23:53:57.609Z,8.30
2022-09-20T23:56:24.425Z,9.03
2022-09-20T23:58:51.245Z,7.80
